sensor_id;sensor_type;location;lat;lon;timestamp;P1;durP1;ratioP1;P2;durP2;ratioP2
70457;SDS011;57919;56.194;95.716;2023-06-05T00:01:38;18.77;;;10.43;;
70457;SDS011;57919;56.194;95.716;2023-06-05T00:11:40;18.45;;;10.60;;
70457;SDS011;57919;56.194;95.716;2023-06-05T00:21:42;17.47;;;10.03;;
70457;SDS011;57919;56.194;95.716;2023-06-05T00:31:44;17.50;;;9.23;;
70457;SDS011;57919;56.194;95.716;2023-06-05T00:41:47;17.08;;;8.70;;
70457;SDS011;57919;56.194;95.716;2023-06-05T00:51:49;15.37;;;8.60;;
70457;SDS011;57919;56.194;95.716;2023-06-05T01:01:52;18.13;;;9.88;;
70457;SDS011;57919;56.194;95.716;2023-06-05T01:12:06;17.63;;;9.17;;
70457;SDS011;57919;56.194;95.716;2023-06-05T01:22:13;19.10;;;9.20;;
70457;SDS011;57919;56.194;95.716;2023-06-05T01:32:16;14.88;;;9.82;;
70457;SDS011;57919;56.194;95.716;2023-06-05T01:42:40;13.67;;;9.33;;
70457;SDS011;57919;56.194;95.716;2023-06-05T01:52:43;18.17;;;9.18;;
70457;SDS011;57919;56.194;95.716;2023-06-05T02:02:48;17.37;;;9.03;;
70457;SDS011;57919;56.194;95.716;2023-06-05T02:12:51;12.57;;;8.53;;
70457;SDS011;57919;56.194;95.716;2023-06-05T02:22:53;14.57;;;8.80;;
70457;SDS011;57919;56.194;95.716;2023-06-05T02:32:56;15.77;;;9.37;;
70457;SDS011;57919;56.194;95.716;2023-06-05T02:43:02;15.27;;;8.63;;
70457;SDS011;57919;56.194;95.716;2023-06-05T02:53:07;12.97;;;8.83;;
70457;SDS011;57919;56.194;95.716;2023-06-05T03:03:11;13.53;;;8.13;;
70457;SDS011;57919;56.194;95.716;2023-06-05T03:13:15;11.82;;;7.90;;
70457;SDS011;57919;56.194;95.716;2023-06-05T03:23:18;14.37;;;7.87;;
70457;SDS011;57919;56.194;95.716;2023-06-05T03:33:20;12.07;;;7.72;;
70457;SDS011;57919;56.194;95.716;2023-06-05T03:43:25;10.63;;;7.67;;
70457;SDS011;57919;56.194;95.716;2023-06-05T03:53:28;18.27;;;8.17;;
70457;SDS011;57919;56.194;95.716;2023-06-05T04:03:31;11.95;;;7.38;;
70457;SDS011;57919;56.194;95.716;2023-06-05T04:13:34;14.53;;;8.37;;
70457;SDS011;57919;56.194;95.716;2023-06-05T04:23:39;13.73;;;8.90;;
70457;SDS011;57919;56.194;95.716;2023-06-05T04:33:42;12.00;;;8.27;;
70457;SDS011;57919;56.194;95.716;2023-06-05T04:43:44;11.63;;;7.47;;
70457;SDS011;57919;56.194;95.716;2023-06-05T04:53:47;22.95;;;8.65;;
70457;SDS011;57919;56.194;95.716;2023-06-05T05:03:52;15.60;;;7.97;;
70457;SDS011;57919;56.194;95.716;2023-06-05T05:13:56;22.77;;;9.60;;
70457;SDS011;57919;56.194;95.716;2023-06-05T05:23:58;14.87;;;6.90;;
70457;SDS011;57919;56.194;95.716;2023-06-05T05:34:01;13.47;;;8.30;;
70457;SDS011;57919;56.194;95.716;2023-06-05T05:44:03;15.27;;;8.45;;
70457;SDS011;57919;56.194;95.716;2023-06-05T05:54:06;12.70;;;8.30;;
70457;SDS011;57919;56.194;95.716;2023-06-05T06:04:09;9.85;;;7.22;;
70457;SDS011;57919;56.194;95.716;2023-06-05T06:14:10;19.57;;;7.93;;
70457;SDS011;57919;56.194;95.716;2023-06-05T06:24:12;14.53;;;7.60;;
70457;SDS011;57919;56.194;95.716;2023-06-05T06:34:17;14.32;;;7.65;;
70457;SDS011;57919;56.194;95.716;2023-06-05T06:44:18;15.90;;;7.87;;
70457;SDS011;57919;56.194;95.716;2023-06-05T06:54:20;23.58;;;7.32;;
70457;SDS011;57919;56.194;95.716;2023-06-05T07:04:23;12.50;;;6.83;;
70457;SDS011;57919;56.194;95.716;2023-06-05T07:14:24;12.60;;;7.57;;
70457;SDS011;57919;56.194;95.716;2023-06-05T07:24:28;12.88;;;6.75;;
70457;SDS011;57919;56.194;95.716;2023-06-05T07:34:31;13.93;;;7.20;;
70457;SDS011;57919;56.194;95.716;2023-06-05T07:44:33;13.85;;;7.80;;
70457;SDS011;57919;56.194;95.716;2023-06-05T07:54:35;15.03;;;8.00;;
70457;SDS011;57919;56.194;95.716;2023-06-05T08:04:38;15.57;;;7.43;;
70457;SDS011;57919;56.194;95.716;2023-06-05T08:14:40;13.57;;;7.25;;
70457;SDS011;57919;56.194;95.716;2023-06-05T08:24:42;106.00;;;10.77;;
70457;SDS011;57919;56.194;95.716;2023-06-05T08:34:44;17.40;;;7.93;;
70457;SDS011;57919;56.194;95.716;2023-06-05T08:44:46;13.53;;;7.60;;
70457;SDS011;57919;56.194;95.716;2023-06-05T08:54:48;15.07;;;6.87;;
70457;SDS011;57919;56.194;95.716;2023-06-05T09:04:51;13.20;;;7.60;;
70457;SDS011;57919;56.194;95.716;2023-06-05T09:14:53;15.70;;;8.10;;
70457;SDS011;57919;56.194;95.716;2023-06-05T09:24:56;12.77;;;8.02;;
70457;SDS011;57919;56.194;95.716;2023-06-05T09:34:58;13.93;;;7.63;;
70457;SDS011;57919;56.194;95.716;2023-06-05T09:45:06;15.23;;;8.93;;
70457;SDS011;57919;56.194;95.716;2023-06-05T09:55:09;17.13;;;8.73;;
70457;SDS011;57919;56.194;95.716;2023-06-05T10:05:11;15.83;;;8.37;;
70457;SDS011;57919;56.194;95.716;2023-06-05T10:15:14;13.23;;;7.88;;
70457;SDS011;57919;56.194;95.716;2023-06-05T10:25:17;16.43;;;8.67;;
70457;SDS011;57919;56.194;95.716;2023-06-05T10:45:42;14.95;;;9.23;;
70457;SDS011;57919;56.194;95.716;2023-06-05T10:55:46;20.13;;;9.60;;
70457;SDS011;57919;56.194;95.716;2023-06-05T11:06:10;16.27;;;9.65;;
70457;SDS011;57919;56.194;95.716;2023-06-05T11:16:29;18.93;;;8.70;;
70457;SDS011;57919;56.194;95.716;2023-06-05T11:26:39;14.17;;;9.77;;
70457;SDS011;57919;56.194;95.716;2023-06-05T11:36:43;14.77;;;9.13;;
70457;SDS011;57919;56.194;95.716;2023-06-05T11:46:48;19.37;;;8.90;;
70457;SDS011;57919;56.194;95.716;2023-06-05T11:56:55;17.55;;;9.50;;
70457;SDS011;57919;56.194;95.716;2023-06-05T12:06:58;21.53;;;9.57;;
70457;SDS011;57919;56.194;95.716;2023-06-05T12:17:08;19.50;;;9.13;;
70457;SDS011;57919;56.194;95.716;2023-06-05T12:27:11;17.92;;;8.23;;
70457;SDS011;57919;56.194;95.716;2023-06-05T12:37:22;17.57;;;9.30;;
70457;SDS011;57919;56.194;95.716;2023-06-05T12:47:33;18.95;;;10.80;;
70457;SDS011;57919;56.194;95.716;2023-06-05T12:57:36;23.13;;;14.80;;
70457;SDS011;57919;56.194;95.716;2023-06-05T13:07:38;19.23;;;9.10;;
70457;SDS011;57919;56.194;95.716;2023-06-05T13:17:41;22.13;;;9.23;;
70457;SDS011;57919;56.194;95.716;2023-06-05T13:27:44;22.73;;;11.13;;
70457;SDS011;57919;56.194;95.716;2023-06-05T13:37:46;21.73;;;9.43;;
70457;SDS011;57919;56.194;95.716;2023-06-05T13:47:49;19.27;;;10.00;;
70457;SDS011;57919;56.194;95.716;2023-06-05T13:57:53;26.50;;;12.13;;
70457;SDS011;57919;56.194;95.716;2023-06-05T14:07:55;24.38;;;13.85;;
70457;SDS011;57919;56.194;95.716;2023-06-05T14:17:56;28.50;;;16.83;;
70457;SDS011;57919;56.194;95.716;2023-06-05T14:27:58;33.72;;;25.05;;
70457;SDS011;57919;56.194;95.716;2023-06-05T14:38:01;30.17;;;18.30;;
70457;SDS011;57919;56.194;95.716;2023-06-05T14:48:02;29.23;;;18.70;;
70457;SDS011;57919;56.194;95.716;2023-06-05T14:58:04;29.75;;;16.85;;
70457;SDS011;57919;56.194;95.716;2023-06-05T15:08:08;28.50;;;16.13;;
70457;SDS011;57919;56.194;95.716;2023-06-05T15:18:11;30.90;;;17.27;;
70457;SDS011;57919;56.194;95.716;2023-06-05T15:28:13;29.97;;;18.27;;
70457;SDS011;57919;56.194;95.716;2023-06-05T15:38:17;27.20;;;17.13;;
70457;SDS011;57919;56.194;95.716;2023-06-05T15:48:19;30.52;;;18.15;;
70457;SDS011;57919;56.194;95.716;2023-06-05T15:58:22;27.03;;;15.50;;
70457;SDS011;57919;56.194;95.716;2023-06-05T16:08:24;23.23;;;15.95;;
70457;SDS011;57919;56.194;95.716;2023-06-05T16:18:26;24.67;;;17.43;;
70457;SDS011;57919;56.194;95.716;2023-06-05T16:28:28;25.43;;;16.07;;
70457;SDS011;57919;56.194;95.716;2023-06-05T16:38:30;29.92;;;16.92;;
70457;SDS011;57919;56.194;95.716;2023-06-05T16:48:31;27.07;;;20.27;;
70457;SDS011;57919;56.194;95.716;2023-06-05T16:58:33;32.78;;;22.08;;
70457;SDS011;57919;56.194;95.716;2023-06-05T17:08:35;33.17;;;21.27;;
70457;SDS011;57919;56.194;95.716;2023-06-05T17:18:37;42.70;;;23.47;;
70457;SDS011;57919;56.194;95.716;2023-06-05T17:28:39;42.30;;;31.85;;
70457;SDS011;57919;56.194;95.716;2023-06-05T17:38:41;32.30;;;22.93;;
70457;SDS011;57919;56.194;95.716;2023-06-05T17:48:43;39.90;;;23.88;;
70457;SDS011;57919;56.194;95.716;2023-06-05T17:58:45;41.30;;;27.50;;
70457;SDS011;57919;56.194;95.716;2023-06-05T18:08:49;41.00;;;27.60;;
70457;SDS011;57919;56.194;95.716;2023-06-05T18:18:51;31.25;;;21.02;;
70457;SDS011;57919;56.194;95.716;2023-06-05T18:28:53;29.27;;;17.83;;
70457;SDS011;57919;56.194;95.716;2023-06-05T18:38:55;29.83;;;17.98;;
70457;SDS011;57919;56.194;95.716;2023-06-05T18:48:57;39.10;;;17.43;;
70457;SDS011;57919;56.194;95.716;2023-06-05T18:58:59;31.63;;;19.90;;
70457;SDS011;57919;56.194;95.716;2023-06-05T19:09:01;27.27;;;19.00;;
70457;SDS011;57919;56.194;95.716;2023-06-05T19:19:03;33.60;;;20.80;;
70457;SDS011;57919;56.194;95.716;2023-06-05T19:29:05;25.13;;;17.85;;
70457;SDS011;57919;56.194;95.716;2023-06-05T19:39:07;27.00;;;17.97;;
70457;SDS011;57919;56.194;95.716;2023-06-05T19:49:09;30.00;;;20.30;;
70457;SDS011;57919;56.194;95.716;2023-06-05T19:59:11;25.95;;;17.33;;
70457;SDS011;57919;56.194;95.716;2023-06-05T20:09:14;22.47;;;16.37;;
70457;SDS011;57919;56.194;95.716;2023-06-05T20:19:16;23.27;;;17.73;;
70457;SDS011;57919;56.194;95.716;2023-06-05T20:29:18;23.27;;;15.63;;
70457;SDS011;57919;56.194;95.716;2023-06-05T20:39:21;24.50;;;14.63;;
70457;SDS011;57919;56.194;95.716;2023-06-05T20:49:23;22.10;;;14.68;;
70457;SDS011;57919;56.194;95.716;2023-06-05T20:59:25;24.60;;;16.00;;
70457;SDS011;57919;56.194;95.716;2023-06-05T21:09:27;22.63;;;15.95;;
70457;SDS011;57919;56.194;95.716;2023-06-05T21:19:29;24.63;;;15.70;;
70457;SDS011;57919;56.194;95.716;2023-06-05T21:29:30;20.43;;;15.30;;
70457;SDS011;57919;56.194;95.716;2023-06-05T21:39:32;25.67;;;16.55;;
70457;SDS011;57919;56.194;95.716;2023-06-05T21:49:34;23.67;;;17.00;;
70457;SDS011;57919;56.194;95.716;2023-06-05T21:59:36;28.20;;;17.10;;
70457;SDS011;57919;56.194;95.716;2023-06-05T22:09:39;24.73;;;16.30;;
70457;SDS011;57919;56.194;95.716;2023-06-05T22:19:41;29.50;;;16.63;;
70457;SDS011;57919;56.194;95.716;2023-06-05T22:29:43;21.30;;;15.60;;
70457;SDS011;57919;56.194;95.716;2023-06-05T22:39:45;23.93;;;15.67;;
70457;SDS011;57919;56.194;95.716;2023-06-05T22:49:46;24.15;;;16.05;;
70457;SDS011;57919;56.194;95.716;2023-06-05T22:59:54;21.90;;;14.40;;
70457;SDS011;57919;56.194;95.716;2023-06-05T23:09:58;24.07;;;15.23;;
70457;SDS011;57919;56.194;95.716;2023-06-05T23:20:00;20.30;;;13.95;;
70457;SDS011;57919;56.194;95.716;2023-06-05T23:30:04;18.77;;;14.57;;
70457;SDS011;57919;56.194;95.716;2023-06-05T23:40:07;21.42;;;14.98;;
70457;SDS011;57919;56.194;95.716;2023-06-05T23:50:11;20.90;;;14.23;;
